sensor_id;sensor_type;location;lat;lon;timestamp;P1;durP1;ratioP1;P2;durP2;ratioP2
15496;SDS011;7850;52.204;5.942;2023-04-16T00:04:25;0.20;;;0.20;;
15496;SDS011;7850;52.204;5.942;2023-04-16T00:05:25;0.20;;;0.20;;
15496;SDS011;7850;52.204;5.942;2023-04-16T00:06:25;0.20;;;0.20;;
15496;SDS011;7850;52.204;5.942;2023-04-16T00:07:26;0.20;;;0.20;;
15496;SDS011;7850;52.204;5.942;2023-04-16T00:08:26;0.20;;;0.20;;
15496;SDS011;7850;52.204;5.942;2023-04-16T00:09:26;0.20;;;0.20;;
15496;SDS011;7850;52.204;5.942;2023-04-16T00:10:26;0.20;;;0.20;;
15496;SDS011;7850;52.204;5.942;2023-04-16T00:11:26;0.20;;;0.20;;
15496;SDS011;7850;52.204;5.942;2023-04-16T00:12:26;0.20;;;0.20;;
15496;SDS011;7850;52.204;5.942;2023-04-16T00:13:26;0.20;;;0.20;;
15496;SDS011;7850;52.204;5.942;2023-04-16T00:14:26;0.20;;;0.20;;
15496;SDS011;7850;52.204;5.942;2023-04-16T00:15:26;0.24;;;0.24;;
15496;SDS011;7850;52.204;5.942;2023-04-16T00:16:26;0.20;;;0.20;;
15496;SDS011;7850;52.204;5.942;2023-04-16T00:17:26;0.20;;;0.20;;
15496;SDS011;7850;52.204;5.942;2023-04-16T00:18:26;0.20;;;0.20;;
15496;SDS011;7850;52.204;5.942;2023-04-16T00:19:26;0.20;;;0.20;;
15496;SDS011;7850;52.204;5.942;2023-04-16T00:20:26;0.20;;;0.20;;
15496;SDS011;7850;52.204;5.942;2023-04-16T00:21:26;0.20;;;0.20;;
15496;SDS011;7850;52.204;5.942;2023-04-16T00:22:26;0.20;;;0.20;;
15496;SDS011;7850;52.204;5.942;2023-04-16T00:23:27;0.20;;;0.20;;
15496;SDS011;7850;52.204;5.942;2023-04-16T00:24:27;0.20;;;0.20;;
15496;SDS011;7850;52.204;5.942;2023-04-16T00:25:27;0.20;;;0.20;;
15496;SDS011;7850;52.204;5.942;2023-04-16T00:26:27;0.70;;;0.70;;
15496;SDS011;7850;52.204;5.942;2023-04-16T00:27:27;0.64;;;0.64;;
15496;SDS011;7850;52.204;5.942;2023-04-16T00:28:27;0.70;;;0.70;;
15496;SDS011;7850;52.204;5.942;2023-04-16T00:29:27;0.86;;;0.86;;
15496;SDS011;7850;52.204;5.942;2023-04-16T00:30:27;0.65;;;0.65;;
15496;SDS011;7850;52.204;5.942;2023-04-16T00:31:27;0.80;;;0.80;;
15496;SDS011;7850;52.204;5.942;2023-04-16T00:32:28;0.73;;;0.73;;
15496;SDS011;7850;52.204;5.942;2023-04-16T00:33:27;0.70;;;0.70;;
15496;SDS011;7850;52.204;5.942;2023-04-16T00:34:27;0.73;;;0.73;;
15496;SDS011;7850;52.204;5.942;2023-04-16T00:35:27;0.61;;;0.62;;
15496;SDS011;7850;52.204;5.942;2023-04-16T00:36:28;0.70;;;0.70;;
15496;SDS011;7850;52.204;5.942;2023-04-16T00:37:28;0.65;;;0.65;;
15496;SDS011;7850;52.204;5.942;2023-04-16T00:38:28;0.60;;;0.60;;
15496;SDS011;7850;52.204;5.942;2023-04-16T00:39:28;0.55;;;0.55;;
15496;SDS011;7850;52.204;5.942;2023-04-16T00:40:28;0.69;;;0.70;;
15496;SDS011;7850;52.204;5.942;2023-04-16T00:41:28;0.64;;;0.64;;
15496;SDS011;7850;52.204;5.942;2023-04-16T00:42:28;0.50;;;0.50;;
15496;SDS011;7850;52.204;5.942;2023-04-16T00:43:28;0.54;;;0.55;;
15496;SDS011;7850;52.204;5.942;2023-04-16T00:44:28;0.60;;;0.60;;
15496;SDS011;7850;52.204;5.942;2023-04-16T00:45:28;0.50;;;0.50;;
15496;SDS011;7850;52.204;5.942;2023-04-16T00:46:28;0.51;;;0.52;;
15496;SDS011;7850;52.204;5.942;2023-04-16T00:47:28;0.45;;;0.46;;
15496;SDS011;7850;52.204;5.942;2023-04-16T00:48:28;0.44;;;0.45;;
15496;SDS011;7850;52.204;5.942;2023-04-16T00:49:28;0.51;;;0.51;;
15496;SDS011;7850;52.204;5.942;2023-04-16T00:50:28;0.51;;;0.51;;
15496;SDS011;7850;52.204;5.942;2023-04-16T00:51:28;0.51;;;0.51;;
15496;SDS011;7850;52.204;5.942;2023-04-16T00:52:29;0.50;;;0.50;;
15496;SDS011;7850;52.204;5.942;2023-04-16T00:53:29;0.59;;;0.60;;
15496;SDS011;7850;52.204;5.942;2023-04-16T00:54:29;0.52;;;0.53;;
15496;SDS011;7850;52.204;5.942;2023-04-16T00:55:29;0.51;;;0.51;;
15496;SDS011;7850;52.204;5.942;2023-04-16T00:56:29;0.44;;;0.44;;
15496;SDS011;7850;52.204;5.942;2023-04-16T00:57:29;0.50;;;0.50;;
15496;SDS011;7850;52.204;5.942;2023-04-16T00:58:29;0.46;;;0.46;;
15496;SDS011;7850;52.204;5.942;2023-04-16T00:59:29;0.47;;;0.48;;
15496;SDS011;7850;52.204;5.942;2023-04-16T01:00:29;0.50;;;0.50;;
15496;SDS011;7850;52.204;5.942;2023-04-16T01:01:29;0.49;;;0.49;;
15496;SDS011;7850;52.204;5.942;2023-04-16T01:02:29;0.30;;;0.30;;
15496;SDS011;7850;52.204;5.942;2023-04-16T01:03:35;0.30;;;0.30;;
15496;SDS011;7850;52.204;5.942;2023-04-16T01:04:29;0.30;;;0.30;;
15496;SDS011;7850;52.204;5.942;2023-04-16T01:05:29;0.30;;;0.30;;
15496;SDS011;7850;52.204;5.942;2023-04-16T01:06:30;0.30;;;0.30;;
15496;SDS011;7850;52.204;5.942;2023-04-16T01:07:30;0.32;;;0.32;;
15496;SDS011;7850;52.204;5.942;2023-04-16T01:08:30;0.30;;;0.30;;
15496;SDS011;7850;52.204;5.942;2023-04-16T01:09:30;0.30;;;0.30;;
15496;SDS011;7850;52.204;5.942;2023-04-16T01:10:30;0.35;;;0.35;;
15496;SDS011;7850;52.204;5.942;2023-04-16T01:11:30;0.31;;;0.31;;
15496;SDS011;7850;52.204;5.942;2023-04-16T01:12:30;0.40;;;0.40;;
15496;SDS011;7850;52.204;5.942;2023-04-16T01:13:31;0.30;;;0.30;;
15496;SDS011;7850;52.204;5.942;2023-04-16T01:14:30;0.30;;;0.30;;
15496;SDS011;7850;52.204;5.942;2023-04-16T01:15:30;0.38;;;0.38;;
15496;SDS011;7850;52.204;5.942;2023-04-16T01:16:30;0.40;;;0.40;;
15496;SDS011;7850;52.204;5.942;2023-04-16T01:17:30;0.30;;;0.30;;
15496;SDS011;7850;52.204;5.942;2023-04-16T01:18:30;0.32;;;0.33;;
15496;SDS011;7850;52.204;5.942;2023-04-16T01:19:30;0.30;;;0.30;;
15496;SDS011;7850;52.204;5.942;2023-04-16T01:20:34;0.30;;;0.30;;
15496;SDS011;7850;52.204;5.942;2023-04-16T01:21:30;0.32;;;0.33;;
15496;SDS011;7850;52.204;5.942;2023-04-16T01:22:31;0.39;;;0.39;;
15496;SDS011;7850;52.204;5.942;2023-04-16T01:23:31;0.40;;;0.40;;
15496;SDS011;7850;52.204;5.942;2023-04-16T01:24:31;0.30;;;0.30;;
15496;SDS011;7850;52.204;5.942;2023-04-16T01:25:31;0.40;;;0.40;;
15496;SDS011;7850;52.204;5.942;2023-04-16T01:26:31;0.39;;;0.40;;
15496;SDS011;7850;52.204;5.942;2023-04-16T01:27:31;0.30;;;0.30;;
15496;SDS011;7850;52.204;5.942;2023-04-16T01:28:31;0.34;;;0.35;;
15496;SDS011;7850;52.204;5.942;2023-04-16T01:29:31;0.30;;;0.30;;
15496;SDS011;7850;52.204;5.942;2023-04-16T01:30:31;0.33;;;0.34;;
15496;SDS011;7850;52.204;5.942;2023-04-16T01:31:31;0.40;;;0.40;;
15496;SDS011;7850;52.204;5.942;2023-04-16T01:32:31;0.32;;;0.33;;
15496;SDS011;7850;52.204;5.942;2023-04-16T01:33:31;0.40;;;0.40;;
15496;SDS011;7850;52.204;5.942;2023-04-16T01:34:31;0.40;;;0.40;;
15496;SDS011;7850;52.204;5.942;2023-04-16T01:35:31;0.30;;;0.31;;
15496;SDS011;7850;52.204;5.942;2023-04-16T01:36:31;0.40;;;0.40;;
15496;SDS011;7850;52.204;5.942;2023-04-16T01:37:32;0.40;;;0.40;;
15496;SDS011;7850;52.204;5.942;2023-04-16T01:38:32;0.35;;;0.36;;
15496;SDS011;7850;52.204;5.942;2023-04-16T01:39:32;0.40;;;0.40;;
15496;SDS011;7850;52.204;5.942;2023-04-16T01:40:32;0.39;;;0.39;;
15496;SDS011;7850;52.204;5.942;2023-04-16T01:41:32;0.50;;;0.50;;
15496;SDS011;7850;52.204;5.942;2023-04-16T01:42:32;0.30;;;0.30;;
15496;SDS011;7850;52.204;5.942;2023-04-16T01:43:32;0.37;;;0.38;;
15496;SDS011;7850;52.204;5.942;2023-04-16T01:44:32;0.30;;;0.30;;
15496;SDS011;7850;52.204;5.942;2023-04-16T01:45:32;0.30;;;0.30;;
15496;SDS011;7850;52.204;5.942;2023-04-16T01:46:32;0.21;;;0.22;;
15496;SDS011;7850;52.204;5.942;2023-04-16T01:47:32;0.30;;;0.30;;
15496;SDS011;7850;52.204;5.942;2023-04-16T01:48:32;0.30;;;0.30;;
15496;SDS011;7850;52.204;5.942;2023-04-16T01:49:32;0.30;;;0.30;;
15496;SDS011;7850;52.204;5.942;2023-04-16T01:50:32;0.28;;;0.29;;
15496;SDS011;7850;52.204;5.942;2023-04-16T01:51:32;0.30;;;0.30;;
15496;SDS011;7850;52.204;5.942;2023-04-16T01:52:32;0.30;;;0.30;;
15496;SDS011;7850;52.204;5.942;2023-04-16T01:53:32;0.30;;;0.30;;
15496;SDS011;7850;52.204;5.942;2023-04-16T01:54:33;0.30;;;0.30;;
15496;SDS011;7850;52.204;5.942;2023-04-16T01:55:33;0.30;;;0.30;;
15496;SDS011;7850;52.204;5.942;2023-04-16T01:56:33;0.30;;;0.30;;
15496;SDS011;7850;52.204;5.942;2023-04-16T01:57:33;0.30;;;0.30;;
15496;SDS011;7850;52.204;5.942;2023-04-16T01:58:33;0.30;;;0.30;;
15496;SDS011;7850;52.204;5.942;2023-04-16T01:59:33;0.30;;;0.30;;
15496;SDS011;7850;52.204;5.942;2023-04-16T02:00:33;0.30;;;0.30;;
15496;SDS011;7850;52.204;5.942;2023-04-16T02:01:33;0.30;;;0.30;;
15496;SDS011;7850;52.204;5.942;2023-04-16T02:02:33;0.30;;;0.30;;
15496;SDS011;7850;52.204;5.942;2023-04-16T02:03:33;0.28;;;0.29;;
15496;SDS011;7850;52.204;5.942;2023-04-16T02:04:33;0.30;;;0.30;;
15496;SDS011;7850;52.204;5.942;2023-04-16T02:05:33;0.28;;;0.29;;
15496;SDS011;7850;52.204;5.942;2023-04-16T02:06:33;0.30;;;0.30;;
15496;SDS011;7850;52.204;5.942;2023-04-16T02:07:33;0.22;;;0.22;;
15496;SDS011;7850;52.204;5.942;2023-04-16T02:08:33;0.20;;;0.20;;
15496;SDS011;7850;52.204;5.942;2023-04-16T02:09:34;0.30;;;0.30;;
15496;SDS011;7850;52.204;5.942;2023-04-16T02:10:34;0.30;;;0.30;;
15496;SDS011;7850;52.204;5.942;2023-04-16T02:11:34;0.30;;;0.30;;
15496;SDS011;7850;52.204;5.942;2023-04-16T02:12:34;0.31;;;0.31;;
15496;SDS011;7850;52.204;5.942;2023-04-16T02:13:34;0.30;;;0.30;;
15496;SDS011;7850;52.204;5.942;2023-04-16T02:14:34;0.27;;;0.27;;
15496;SDS011;7850;52.204;5.942;2023-04-16T02:15:34;0.30;;;0.30;;
15496;SDS011;7850;52.204;5.942;2023-04-16T02:16:34;0.30;;;0.30;;
15496;SDS011;7850;52.204;5.942;2023-04-16T02:17:34;0.30;;;0.30;;
15496;SDS011;7850;52.204;5.942;2023-04-16T02:18:34;0.20;;;0.21;;
15496;SDS011;7850;52.204;5.942;2023-04-16T02:19:34;0.30;;;0.30;;
15496;SDS011;7850;52.204;5.942;2023-04-16T02:20:34;0.30;;;0.30;;
15496;SDS011;7850;52.204;5.942;2023-04-16T02:21:34;0.26;;;0.26;;
15496;SDS011;7850;52.204;5.942;2023-04-16T02:22:34;0.30;;;0.30;;
15496;SDS011;7850;52.204;5.942;2023-04-16T02:23:34;0.30;;;0.30;;
15496;SDS011;7850;52.204;5.942;2023-04-16T02:24:34;0.30;;;0.30;;
15496;SDS011;7850;52.204;5.942;2023-04-16T02:25:38;0.30;;;0.30;;
15496;SDS011;7850;52.204;5.942;2023-04-16T02:26:34;0.30;;;0.30;;
15496;SDS011;7850;52.204;5.942;2023-04-16T02:27:34;0.30;;;0.30;;
15496;SDS011;7850;52.204;5.942;2023-04-16T02:28:34;0.33;;;0.33;;
15496;SDS011;7850;52.204;5.942;2023-04-16T02:29:35;0.30;;;0.30;;
15496;SDS011;7850;52.204;5.942;2023-04-16T02:30:35;0.38;;;0.38;;
15496;SDS011;7850;52.204;5.942;2023-04-16T02:31:35;0.40;;;0.40;;
15496;SDS011;7850;52.204;5.942;2023-04-16T02:32:35;0.40;;;0.40;;
15496;SDS011;7850;52.204;5.942;2023-04-16T02:33:35;0.34;;;0.35;;
15496;SDS011;7850;52.204;5.942;2023-04-16T02:34:35;0.40;;;0.40;;
15496;SDS011;7850;52.204;5.942;2023-04-16T02:35:35;0.36;;;0.37;;
15496;SDS011;7850;52.204;5.942;2023-04-16T02:36:35;0.30;;;0.30;;
15496;SDS011;7850;52.204;5.942;2023-04-16T02:37:35;0.30;;;0.30;;
15496;SDS011;7850;52.204;5.942;2023-04-16T02:38:35;0.40;;;0.40;;
15496;SDS011;7850;52.204;5.942;2023-04-16T02:39:35;0.40;;;0.40;;
15496;SDS011;7850;52.204;5.942;2023-04-16T02:40:35;0.30;;;0.31;;
15496;SDS011;7850;52.204;5.942;2023-04-16T02:41:35;0.30;;;0.30;;
15496;SDS011;7850;52.204;5.942;2023-04-16T02:42:35;0.30;;;0.30;;
15496;SDS011;7850;52.204;5.942;2023-04-16T02:43:36;0.35;;;0.36;;
15496;SDS011;7850;52.204;5.942;2023-04-16T02:44:36;0.30;;;0.30;;
15496;SDS011;7850;52.204;5.942;2023-04-16T02:45:36;0.30;;;0.30;;
15496;SDS011;7850;52.204;5.942;2023-04-16T02:46:36;0.39;;;0.40;;
15496;SDS011;7850;52.204;5.942;2023-04-16T02:47:36;0.30;;;0.30;;
15496;SDS011;7850;52.204;5.942;2023-04-16T02:48:36;0.32;;;0.32;;
15496;SDS011;7850;52.204;5.942;2023-04-16T02:49:36;0.30;;;0.30;;
15496;SDS011;7850;52.204;5.942;2023-04-16T02:50:36;0.33;;;0.34;;
15496;SDS011;7850;52.204;5.942;2023-04-16T02:51:36;0.38;;;0.39;;
15496;SDS011;7850;52.204;5.942;2023-04-16T02:52:36;0.30;;;0.30;;
15496;SDS011;7850;52.204;5.942;2023-04-16T02:53:36;0.31;;;0.32;;
15496;SDS011;7850;52.204;5.942;2023-04-16T02:54:36;0.30;;;0.30;;
15496;SDS011;7850;52.204;5.942;2023-04-16T02:55:36;0.30;;;0.30;;
15496;SDS011;7850;52.204;5.942;2023-04-16T02:56:36;0.34;;;0.34;;
15496;SDS011;7850;52.204;5.942;2023-04-16T02:57:37;0.30;;;0.30;;
15496;SDS011;7850;52.204;5.942;2023-04-16T02:58:37;0.30;;;0.30;;
15496;SDS011;7850;52.204;5.942;2023-04-16T02:59:37;0.30;;;0.30;;
15496;SDS011;7850;52.204;5.942;2023-04-16T03:00:37;0.30;;;0.30;;
15496;SDS011;7850;52.204;5.942;2023-04-16T03:01:37;0.30;;;0.30;;
15496;SDS011;7850;52.204;5.942;2023-04-16T03:02:37;0.30;;;0.30;;
15496;SDS011;7850;52.204;5.942;2023-04-16T03:03:37;0.30;;;0.30;;
15496;SDS011;7850;52.204;5.942;2023-04-16T03:04:37;0.30;;;0.30;;
15496;SDS011;7850;52.204;5.942;2023-04-16T03:05:37;0.29;;;0.30;;
15496;SDS011;7850;52.204;5.942;2023-04-16T03:06:37;0.30;;;0.30;;
15496;SDS011;7850;52.204;5.942;2023-04-16T03:07:37;0.30;;;0.30;;
15496;SDS011;7850;52.204;5.942;2023-04-16T03:08:37;0.28;;;0.28;;
15496;SDS011;7850;52.204;5.942;2023-04-16T03:09:37;0.30;;;0.30;;
15496;SDS011;7850;52.204;5.942;2023-04-16T03:10:37;0.30;;;0.30;;
15496;SDS011;7850;52.204;5.942;2023-04-16T03:11:37;0.21;;;0.22;;
15496;SDS011;7850;52.204;5.942;2023-04-16T03:12:38;0.23;;;0.24;;
15496;SDS011;7850;52.204;5.942;2023-04-16T03:13:38;0.30;;;0.30;;
15496;SDS011;7850;52.204;5.942;2023-04-16T03:14:38;0.40;;;0.40;;
15496;SDS011;7850;52.204;5.942;2023-04-16T03:15:38;0.40;;;0.40;;
15496;SDS011;7850;52.204;5.942;2023-04-16T03:16:38;0.40;;;0.40;;
15496;SDS011;7850;52.204;5.942;2023-04-16T03:17:38;0.40;;;0.40;;
15496;SDS011;7850;52.204;5.942;2023-04-16T03:18:38;0.38;;;0.39;;
15496;SDS011;7850;52.204;5.942;2023-04-16T03:19:38;0.30;;;0.30;;
15496;SDS011;7850;52.204;5.942;2023-04-16T03:20:38;0.37;;;0.37;;
15496;SDS011;7850;52.204;5.942;2023-04-16T03:21:38;0.40;;;0.40;;
15496;SDS011;7850;52.204;5.942;2023-04-16T03:22:38;0.30;;;0.30;;
15496;SDS011;7850;52.204;5.942;2023-04-16T03:23:38;0.30;;;0.30;;
15496;SDS011;7850;52.204;5.942;2023-04-16T03:24:38;0.30;;;0.30;;
15496;SDS011;7850;52.204;5.942;2023-04-16T03:25:38;0.30;;;0.30;;
15496;SDS011;7850;52.204;5.942;2023-04-16T03:26:38;0.30;;;0.30;;
15496;SDS011;7850;52.204;5.942;2023-04-16T03:27:39;0.38;;;0.39;;
15496;SDS011;7850;52.204;5.942;2023-04-16T03:28:39;0.36;;;0.37;;
15496;SDS011;7850;52.204;5.942;2023-04-16T03:29:39;0.24;;;0.24;;
15496;SDS011;7850;52.204;5.942;2023-04-16T03:30:39;0.29;;;0.30;;
15496;SDS011;7850;52.204;5.942;2023-04-16T03:31:39;0.30;;;0.30;;
15496;SDS011;7850;52.204;5.942;2023-04-16T03:32:39;0.30;;;0.30;;
15496;SDS011;7850;52.204;5.942;2023-04-16T03:33:39;0.30;;;0.30;;
15496;SDS011;7850;52.204;5.942;2023-04-16T03:34:39;0.30;;;0.30;;
15496;SDS011;7850;52.204;5.942;2023-04-16T03:35:39;0.40;;;0.40;;
15496;SDS011;7850;52.204;5.942;2023-04-16T03:36:39;0.30;;;0.30;;
15496;SDS011;7850;52.204;5.942;2023-04-16T03:37:39;0.30;;;0.30;;
15496;SDS011;7850;52.204;5.942;2023-04-16T03:38:39;0.30;;;0.30;;
15496;SDS011;7850;52.204;5.942;2023-04-16T03:39:39;0.30;;;0.30;;
15496;SDS011;7850;52.204;5.942;2023-04-16T03:40:39;0.36;;;0.36;;
15496;SDS011;7850;52.204;5.942;2023-04-16T03:41:40;0.38;;;0.38;;
15496;SDS011;7850;52.204;5.942;2023-04-16T03:42:40;0.37;;;0.37;;
15496;SDS011;7850;52.204;5.942;2023-04-16T03:43:40;0.40;;;0.40;;
15496;SDS011;7850;52.204;5.942;2023-04-16T03:44:40;0.32;;;0.32;;
15496;SDS011;7850;52.204;5.942;2023-04-16T03:45:42;0.32;;;0.32;;
15496;SDS011;7850;52.204;5.942;2023-04-16T03:46:40;0.32;;;0.33;;
15496;SDS011;7850;52.204;5.942;2023-04-16T03:47:40;0.30;;;0.31;;
15496;SDS011;7850;52.204;5.942;2023-04-16T03:48:40;0.42;;;0.42;;
15496;SDS011;7850;52.204;5.942;2023-04-16T03:49:40;0.42;;;0.42;;
15496;SDS011;7850;52.204;5.942;2023-04-16T03:50:43;0.40;;;0.40;;
15496;SDS011;7850;52.204;5.942;2023-04-16T03:51:40;0.42;;;0.42;;
15496;SDS011;7850;52.204;5.942;2023-04-16T03:52:40;0.40;;;0.41;;
15496;SDS011;7850;52.204;5.942;2023-04-16T03:53:40;0.30;;;0.30;;
15496;SDS011;7850;52.204;5.942;2023-04-16T03:54:40;0.37;;;0.37;;
15496;SDS011;7850;52.204;5.942;2023-04-16T03:55:41;0.31;;;0.32;;
15496;SDS011;7850;52.204;5.942;2023-04-16T03:56:40;0.37;;;0.37;;
15496;SDS011;7850;52.204;5.942;2023-04-16T03:57:41;0.37;;;0.38;;
15496;SDS011;7850;52.204;5.942;2023-04-16T03:58:41;0.30;;;0.30;;
15496;SDS011;7850;52.204;5.942;2023-04-16T03:59:41;0.30;;;0.30;;
15496;SDS011;7850;52.204;5.942;2023-04-16T04:00:41;0.30;;;0.30;;
15496;SDS011;7850;52.204;5.942;2023-04-16T04:01:41;0.37;;;0.37;;
15496;SDS011;7850;52.204;5.942;2023-04-16T04:02:41;0.30;;;0.30;;
15496;SDS011;7850;52.204;5.942;2023-04-16T04:03:41;0.34;;;0.35;;
15496;SDS011;7850;52.204;5.942;2023-04-16T04:04:41;0.32;;;0.33;;
15496;SDS011;7850;52.204;5.942;2023-04-16T04:05:41;0.51;;;0.52;;
15496;SDS011;7850;52.204;5.942;2023-04-16T04:06:41;0.50;;;0.50;;
15496;SDS011;7850;52.204;5.942;2023-04-16T04:07:41;0.60;;;0.60;;
15496;SDS011;7850;52.204;5.942;2023-04-16T04:08:41;0.50;;;0.50;;
15496;SDS011;7850;52.204;5.942;2023-04-16T04:09:41;0.60;;;0.60;;
15496;SDS011;7850;52.204;5.942;2023-04-16T04:10:41;0.60;;;0.60;;
15496;SDS011;7850;52.204;5.942;2023-04-16T04:11:41;0.52;;;0.53;;
15496;SDS011;7850;52.204;5.942;2023-04-16T04:12:42;0.50;;;0.50;;
15496;SDS011;7850;52.204;5.942;2023-04-16T04:13:42;0.52;;;0.52;;
15496;SDS011;7850;52.204;5.942;2023-04-16T04:14:42;0.57;;;0.58;;
15496;SDS011;7850;52.204;5.942;2023-04-16T04:15:42;0.48;;;0.49;;
15496;SDS011;7850;52.204;5.942;2023-04-16T04:16:42;0.60;;;0.60;;
15496;SDS011;7850;52.204;5.942;2023-04-16T04:17:42;0.56;;;0.57;;
15496;SDS011;7850;52.204;5.942;2023-04-16T04:18:42;0.52;;;0.52;;
15496;SDS011;7850;52.204;5.942;2023-04-16T04:19:42;0.55;;;0.55;;
15496;SDS011;7850;52.204;5.942;2023-04-16T04:20:43;0.70;;;0.70;;
15496;SDS011;7850;52.204;5.942;2023-04-16T04:21:42;0.60;;;0.60;;
15496;SDS011;7850;52.204;5.942;2023-04-16T04:22:42;0.62;;;0.62;;
15496;SDS011;7850;52.204;5.942;2023-04-16T04:23:42;0.54;;;0.54;;
15496;SDS011;7850;52.204;5.942;2023-04-16T04:24:42;0.68;;;0.68;;
15496;SDS011;7850;52.204;5.942;2023-04-16T04:25:42;0.61;;;0.61;;
15496;SDS011;7850;52.204;5.942;2023-04-16T04:26:43;0.63;;;0.64;;
15496;SDS011;7850;52.204;5.942;2023-04-16T04:27:43;0.64;;;0.64;;
15496;SDS011;7850;52.204;5.942;2023-04-16T04:28:43;0.74;;;0.74;;
15496;SDS011;7850;52.204;5.942;2023-04-16T04:29:43;0.68;;;0.69;;
15496;SDS011;7850;52.204;5.942;2023-04-16T04:30:43;0.60;;;0.60;;
15496;SDS011;7850;52.204;5.942;2023-04-16T04:31:43;0.57;;;0.57;;
15496;SDS011;7850;52.204;5.942;2023-04-16T04:32:43;0.53;;;0.54;;
15496;SDS011;7850;52.204;5.942;2023-04-16T04:33:43;0.74;;;0.75;;
15496;SDS011;7850;52.204;5.942;2023-04-16T04:34:43;0.61;;;0.61;;
15496;SDS011;7850;52.204;5.942;2023-04-16T04:35:43;0.57;;;0.58;;
15496;SDS011;7850;52.204;5.942;2023-04-16T04:36:43;0.54;;;0.55;;
15496;SDS011;7850;52.204;5.942;2023-04-16T04:37:43;0.50;;;0.50;;
15496;SDS011;7850;52.204;5.942;2023-04-16T04:38:43;0.53;;;0.53;;
15496;SDS011;7850;52.204;5.942;2023-04-16T04:39:43;0.60;;;0.60;;
15496;SDS011;7850;52.204;5.942;2023-04-16T04:40:43;0.55;;;0.55;;
15496;SDS011;7850;52.204;5.942;2023-04-16T04:41:43;0.50;;;0.50;;
15496;SDS011;7850;52.204;5.942;2023-04-16T04:42:44;0.53;;;0.53;;
15496;SDS011;7850;52.204;5.942;2023-04-16T04:43:44;0.66;;;0.67;;
15496;SDS011;7850;52.204;5.942;2023-04-16T04:44:44;0.52;;;0.52;;
15496;SDS011;7850;52.204;5.942;2023-04-16T04:45:44;0.56;;;0.57;;
15496;SDS011;7850;52.204;5.942;2023-04-16T04:46:44;0.60;;;0.60;;
15496;SDS011;7850;52.204;5.942;2023-04-16T04:47:44;0.50;;;0.50;;
15496;SDS011;7850;52.204;5.942;2023-04-16T04:48:44;0.54;;;0.54;;
15496;SDS011;7850;52.204;5.942;2023-04-16T04:49:44;0.58;;;0.58;;
15496;SDS011;7850;52.204;5.942;2023-04-16T04:50:44;0.60;;;0.60;;
15496;SDS011;7850;52.204;5.942;2023-04-16T04:51:44;0.64;;;0.64;;
15496;SDS011;7850;52.204;5.942;2023-04-16T04:52:44;0.70;;;0.70;;
15496;SDS011;7850;52.204;5.942;2023-04-16T04:53:44;0.70;;;0.70;;
15496;SDS011;7850;52.204;5.942;2023-04-16T04:54:44;0.65;;;0.65;;
15496;SDS011;7850;52.204;5.942;2023-04-16T04:55:44;0.57;;;0.58;;
15496;SDS011;7850;52.204;5.942;2023-04-16T04:56:45;0.67;;;0.67;;
15496;SDS011;7850;52.204;5.942;2023-04-16T04:57:45;0.73;;;0.74;;
15496;SDS011;7850;52.204;5.942;2023-04-16T04:58:45;0.61;;;0.62;;
15496;SDS011;7850;52.204;5.942;2023-04-16T04:59:45;0.76;;;0.77;;
15496;SDS011;7850;52.204;5.942;2023-04-16T05:00:45;0.66;;;0.66;;
15496;SDS011;7850;52.204;5.942;2023-04-16T05:01:45;0.58;;;0.58;;
15496;SDS011;7850;52.204;5.942;2023-04-16T05:02:45;0.60;;;0.60;;
15496;SDS011;7850;52.204;5.942;2023-04-16T05:03:45;0.50;;;0.50;;
15496;SDS011;7850;52.204;5.942;2023-04-16T05:04:45;0.57;;;0.57;;
15496;SDS011;7850;52.204;5.942;2023-04-16T05:05:45;0.53;;;0.53;;
15496;SDS011;7850;52.204;5.942;2023-04-16T05:06:45;0.50;;;0.50;;
15496;SDS011;7850;52.204;5.942;2023-04-16T05:07:45;0.49;;;0.49;;
15496;SDS011;7850;52.204;5.942;2023-04-16T05:08:45;0.50;;;0.50;;
15496;SDS011;7850;52.204;5.942;2023-04-16T05:09:45;0.57;;;0.58;;
15496;SDS011;7850;52.204;5.942;2023-04-16T05:10:45;0.56;;;0.57;;
15496;SDS011;7850;52.204;5.942;2023-04-16T05:11:45;0.51;;;0.52;;
15496;SDS011;7850;52.204;5.942;2023-04-16T05:12:46;0.51;;;0.51;;
15496;SDS011;7850;52.204;5.942;2023-04-16T05:13:46;0.56;;;0.56;;
15496;SDS011;7850;52.204;5.942;2023-04-16T05:14:46;0.50;;;0.50;;
15496;SDS011;7850;52.204;5.942;2023-04-16T05:15:46;0.49;;;0.50;;
15496;SDS011;7850;52.204;5.942;2023-04-16T05:16:46;0.55;;;0.56;;
15496;SDS011;7850;52.204;5.942;2023-04-16T05:17:46;0.50;;;0.50;;
15496;SDS011;7850;52.204;5.942;2023-04-16T05:18:46;0.50;;;0.50;;
15496;SDS011;7850;52.204;5.942;2023-04-16T05:19:46;0.49;;;0.49;;
15496;SDS011;7850;52.204;5.942;2023-04-16T05:20:46;0.50;;;0.50;;
15496;SDS011;7850;52.204;5.942;2023-04-16T05:21:46;0.48;;;0.49;;
15496;SDS011;7850;52.204;5.942;2023-04-16T05:22:46;0.40;;;0.40;;
15496;SDS011;7850;52.204;5.942;2023-04-16T05:23:46;0.40;;;0.40;;
15496;SDS011;7850;52.204;5.942;2023-04-16T05:24:46;0.40;;;0.40;;
15496;SDS011;7850;52.204;5.942;2023-04-16T05:25:46;0.40;;;0.41;;
15496;SDS011;7850;52.204;5.942;2023-04-16T05:26:47;0.40;;;0.40;;
15496;SDS011;7850;52.204;5.942;2023-04-16T05:27:47;0.48;;;0.48;;
15496;SDS011;7850;52.204;5.942;2023-04-16T05:28:47;0.33;;;0.34;;
15496;SDS011;7850;52.204;5.942;2023-04-16T05:29:47;0.30;;;0.30;;
15496;SDS011;7850;52.204;5.942;2023-04-16T05:30:47;0.30;;;0.30;;
15496;SDS011;7850;52.204;5.942;2023-04-16T05:31:47;0.20;;;0.20;;
15496;SDS011;7850;52.204;5.942;2023-04-16T05:32:47;0.26;;;0.27;;
15496;SDS011;7850;52.204;5.942;2023-04-16T05:33:47;0.30;;;0.30;;
15496;SDS011;7850;52.204;5.942;2023-04-16T05:34:47;0.20;;;0.20;;
15496;SDS011;7850;52.204;5.942;2023-04-16T05:35:47;0.30;;;0.30;;
15496;SDS011;7850;52.204;5.942;2023-04-16T05:36:47;0.26;;;0.26;;
15496;SDS011;7850;52.204;5.942;2023-04-16T05:37:47;0.30;;;0.30;;
15496;SDS011;7850;52.204;5.942;2023-04-16T05:38:47;0.30;;;0.30;;
15496;SDS011;7850;52.204;5.942;2023-04-16T05:39:47;0.29;;;0.30;;
15496;SDS011;7850;52.204;5.942;2023-04-16T05:40:47;0.30;;;0.30;;
15496;SDS011;7850;52.204;5.942;2023-04-16T05:41:47;0.30;;;0.30;;
15496;SDS011;7850;52.204;5.942;2023-04-16T05:42:47;0.30;;;0.30;;
15496;SDS011;7850;52.204;5.942;2023-04-16T05:43:47;0.29;;;0.29;;
15496;SDS011;7850;52.204;5.942;2023-04-16T05:44:49;0.30;;;0.30;;
15496;SDS011;7850;52.204;5.942;2023-04-16T05:45:48;0.30;;;0.30;;
15496;SDS011;7850;52.204;5.942;2023-04-16T05:46:48;0.30;;;0.30;;
15496;SDS011;7850;52.204;5.942;2023-04-16T05:47:48;0.30;;;0.30;;
15496;SDS011;7850;52.204;5.942;2023-04-16T05:48:48;0.30;;;0.30;;
15496;SDS011;7850;52.204;5.942;2023-04-16T05:49:48;0.30;;;0.30;;
15496;SDS011;7850;52.204;5.942;2023-04-16T05:50:48;0.40;;;0.40;;
15496;SDS011;7850;52.204;5.942;2023-04-16T05:51:48;0.30;;;0.30;;
15496;SDS011;7850;52.204;5.942;2023-04-16T05:52:48;0.34;;;0.34;;
15496;SDS011;7850;52.204;5.942;2023-04-16T05:53:48;0.30;;;0.30;;
15496;SDS011;7850;52.204;5.942;2023-04-16T05:54:48;0.30;;;0.30;;
15496;SDS011;7850;52.204;5.942;2023-04-16T05:55:48;0.30;;;0.30;;
15496;SDS011;7850;52.204;5.942;2023-04-16T05:56:48;0.30;;;0.30;;
15496;SDS011;7850;52.204;5.942;2023-04-16T05:57:48;0.30;;;0.30;;
15496;SDS011;7850;52.204;5.942;2023-04-16T05:58:48;0.30;;;0.30;;
15496;SDS011;7850;52.204;5.942;2023-04-16T05:59:49;0.30;;;0.30;;
15496;SDS011;7850;52.204;5.942;2023-04-16T06:00:49;0.30;;;0.30;;
15496;SDS011;7850;52.204;5.942;2023-04-16T06:01:49;0.30;;;0.30;;
15496;SDS011;7850;52.204;5.942;2023-04-16T06:02:49;0.30;;;0.30;;
15496;SDS011;7850;52.204;5.942;2023-04-16T06:03:49;0.27;;;0.28;;
15496;SDS011;7850;52.204;5.942;2023-04-16T06:04:49;0.30;;;0.30;;
15496;SDS011;7850;52.204;5.942;2023-04-16T06:05:49;0.30;;;0.30;;
15496;SDS011;7850;52.204;5.942;2023-04-16T06:06:49;0.30;;;0.30;;
15496;SDS011;7850;52.204;5.942;2023-04-16T06:07:49;0.30;;;0.30;;
15496;SDS011;7850;52.204;5.942;2023-04-16T06:08:49;0.40;;;0.40;;
15496;SDS011;7850;52.204;5.942;2023-04-16T06:09:49;0.32;;;0.33;;
15496;SDS011;7850;52.204;5.942;2023-04-16T06:10:49;0.38;;;0.38;;